createdAt,value
2022-09-02T00:02:05.363Z,0.47
2022-09-02T00:04:33.388Z,0.40
2022-09-02T00:07:03.573Z,0.50
2022-09-02T00:09:32.833Z,0.63
2022-09-02T00:12:02.623Z,0.60
2022-09-02T00:14:35.665Z,0.50
2022-09-02T00:17:07.855Z,0.70
2022-09-02T00:19:38.418Z,0.50
2022-09-02T00:24:39.847Z,0.55
2022-09-02T00:27:07.668Z,0.60
2022-09-02T00:29:38.538Z,0.60
2022-09-02T00:32:11.021Z,0.50
2022-09-02T00:34:38.891Z,0.43
2022-09-02T00:37:06.701Z,0.40
2022-09-02T00:39:40.186Z,0.40
2022-09-02T00:42:08.817Z,0.50
2022-09-02T00:44:36.702Z,0.57
2022-09-02T00:47:10.947Z,0.40
2022-09-02T00:49:42.961Z,0.50
2022-09-02T00:52:17.415Z,0.50
2022-09-02T00:54:49.593Z,0.60
2022-09-02T00:57:25.238Z,0.60
2022-09-02T00:59:58.207Z,0.47
2022-09-02T01:02:30.829Z,0.53
2022-09-02T01:04:59.684Z,0.50
2022-09-02T01:07:36.418Z,0.80
2022-09-02T01:10:07.929Z,0.67
2022-09-02T01:12:36.379Z,0.60
2022-09-02T01:15:11.039Z,0.50
2022-09-02T01:17:44.330Z,0.60
2022-09-02T01:20:19.812Z,0.60
2022-09-02T01:22:57.311Z,0.50
2022-09-02T01:25:31.850Z,0.60
2022-09-02T01:28:03.616Z,0.60
2022-09-02T01:30:34.772Z,0.40
2022-09-02T01:33:05.435Z,0.47
2022-09-02T01:35:33.312Z,0.70
2022-09-02T01:38:04.900Z,0.60
2022-09-02T01:40:33.883Z,0.50
2022-09-02T01:43:05.972Z,0.50
2022-09-02T01:45:36.625Z,0.40
2022-09-02T01:48:09.449Z,0.50
2022-09-02T01:50:42.526Z,0.70
2022-09-02T01:53:19.939Z,0.50
2022-09-02T01:55:48.674Z,0.50
2022-09-02T01:58:16.535Z,0.50
2022-09-02T02:00:48.866Z,0.60
2022-09-02T02:03:20.352Z,0.57
2022-09-02T02:05:49.024Z,0.67
2022-09-02T02:08:20.891Z,0.90
2022-09-02T02:10:51.120Z,0.50
2022-09-02T02:13:18.941Z,0.60
2022-09-02T02:15:48.783Z,0.50
2022-09-02T02:18:21.046Z,0.50
2022-09-02T02:20:49.869Z,0.60
2022-09-02T02:23:19.320Z,0.50
2022-09-02T02:25:49.386Z,0.70
2022-09-02T02:28:19.105Z,0.40
2022-09-02T02:30:47.000Z,0.43
2022-09-02T02:33:17.167Z,0.80
2022-09-02T02:35:46.952Z,0.60
2022-09-02T02:38:14.801Z,0.60
2022-09-02T02:40:46.874Z,0.63
2022-09-02T02:43:16.702Z,0.43
2022-09-02T02:45:44.512Z,0.52
2022-09-02T02:48:14.567Z,0.40
2022-09-02T02:50:44.355Z,0.50
2022-09-02T02:53:17.016Z,0.50
2022-09-02T02:55:51.439Z,0.50
2022-09-02T02:58:19.722Z,0.40
2022-09-02T03:00:53.139Z,0.50
2022-09-02T03:03:22.505Z,0.80
2022-09-02T03:05:55.768Z,0.43
2022-09-02T03:08:25.868Z,0.43
2022-09-02T03:10:59.749Z,0.50
2022-09-02T03:13:29.569Z,7.70
2022-09-02T03:16:04.357Z,16.90
2022-09-02T03:18:32.391Z,2.10
2022-09-02T03:21:02.470Z,4.03
2022-09-02T03:23:32.752Z,4.35
2022-09-02T03:26:01.950Z,2.83
2022-09-02T03:28:33.158Z,2.37
2022-09-02T03:31:02.907Z,1.60
2022-09-02T03:33:30.822Z,1.40
2022-09-02T03:36:03.235Z,1.10
2022-09-02T03:38:32.912Z,0.90
2022-09-02T03:41:02.151Z,0.80
2022-09-02T03:43:32.262Z,0.50
2022-09-02T03:46:02.471Z,0.55
2022-09-02T03:48:30.537Z,0.75
2022-09-02T03:51:02.929Z,0.90
2022-09-02T03:53:30.824Z,0.90
2022-09-02T03:55:58.749Z,1.00
2022-09-02T03:58:31.840Z,0.90
2022-09-02T04:01:00.104Z,0.80
2022-09-02T04:03:28.060Z,0.70
2022-09-02T04:06:00.506Z,0.60
2022-09-02T04:08:28.318Z,0.80
2022-09-02T04:10:56.389Z,0.90
2022-09-02T04:13:29.744Z,0.80
2022-09-02T04:16:01.682Z,0.90
2022-09-02T04:18:34.103Z,0.70
2022-09-02T04:21:02.292Z,1.13
2022-09-02T04:23:30.417Z,0.80
2022-09-02T04:26:06.119Z,1.20
2022-09-02T04:28:36.004Z,0.87
2022-09-02T04:31:08.883Z,0.63
2022-09-02T04:33:37.405Z,1.00
2022-09-02T04:36:09.173Z,2.30
2022-09-02T04:38:39.142Z,6.47
2022-09-02T04:41:08.784Z,1.25
2022-09-02T04:43:42.878Z,0.70
2022-09-02T04:46:12.731Z,1.23
2022-09-02T04:51:15.510Z,1.00
2022-09-02T04:53:44.284Z,0.90
2022-09-02T04:56:15.872Z,0.80
2022-09-02T04:58:47.828Z,0.53
2022-09-02T05:01:22.228Z,1.00
2022-09-02T05:03:51.924Z,0.60
2022-09-02T05:06:26.313Z,0.70
2022-09-02T05:08:58.755Z,0.50
2022-09-02T05:11:29.497Z,0.60
2022-09-02T05:14:05.154Z,0.50
2022-09-02T05:16:36.638Z,1.10
2022-09-02T05:19:11.534Z,0.43
2022-09-02T05:21:42.828Z,0.70
2022-09-02T05:24:14.819Z,0.60
2022-09-02T05:26:43.607Z,0.60
2022-09-02T05:29:18.161Z,0.70
2022-09-02T05:31:46.021Z,0.50
2022-09-02T05:34:14.057Z,0.70
2022-09-02T05:36:46.477Z,0.70
2022-09-02T05:39:16.539Z,0.63
2022-09-02T05:41:44.625Z,0.75
2022-09-02T05:44:13.932Z,1.40
2022-09-02T05:46:48.545Z,0.80
2022-09-02T05:49:18.394Z,0.70
2022-09-02T05:51:51.236Z,0.70
2022-09-02T05:54:24.230Z,0.70
2022-09-02T05:56:54.630Z,0.60
2022-09-02T05:59:29.940Z,0.52
2022-09-02T06:01:58.693Z,0.50
2022-09-02T06:04:29.040Z,0.60
2022-09-02T06:06:56.975Z,0.50
2022-09-02T06:09:25.388Z,0.47
2022-09-02T06:11:56.705Z,0.60
2022-09-02T06:14:27.042Z,0.50
2022-09-02T06:16:56.526Z,0.50
2022-09-02T06:19:26.284Z,0.40
2022-09-02T06:21:58.524Z,0.52
2022-09-02T06:24:29.653Z,0.40
2022-09-02T06:26:59.467Z,0.30
2022-09-02T06:29:31.020Z,0.40
2022-09-02T06:32:01.027Z,0.47
2022-09-02T06:34:28.942Z,0.50
2022-09-02T06:36:57.830Z,0.40
2022-09-02T06:39:27.046Z,0.30
2022-09-02T06:41:55.815Z,0.30
2022-09-02T06:44:26.135Z,0.30
2022-09-02T06:46:59.883Z,0.50
2022-09-02T06:49:31.320Z,0.30
2022-09-02T06:52:01.537Z,0.30
2022-09-02T06:54:31.529Z,0.30
2022-09-02T06:57:01.378Z,0.35
2022-09-02T06:59:29.454Z,0.35
2022-09-02T07:02:00.577Z,0.20
2022-09-02T07:04:47.826Z,0.23
2022-09-02T07:07:15.722Z,0.23
2022-09-02T07:09:44.209Z,0.30
2022-09-02T07:12:12.214Z,0.30
2022-09-02T07:14:42.481Z,0.20
2022-09-02T07:17:17.834Z,0.28
2022-09-02T07:19:46.566Z,0.40
2022-09-02T07:22:14.534Z,0.77
2022-09-02T07:24:49.018Z,0.40
2022-09-02T07:27:16.855Z,0.30
2022-09-02T07:29:47.903Z,0.20
2022-09-02T07:32:21.759Z,0.33
2022-09-02T07:34:49.582Z,0.40
2022-09-02T07:37:17.408Z,0.40
2022-09-02T07:39:48.398Z,0.40
2022-09-02T07:42:16.301Z,0.30
2022-09-02T07:44:44.158Z,0.40
2022-09-02T07:47:17.149Z,0.40
2022-09-02T07:52:38.354Z,0.20
2022-09-02T07:55:10.331Z,0.20
2022-09-02T07:57:46.110Z,0.20
2022-09-02T08:00:16.547Z,0.20
2022-09-02T08:02:46.988Z,0.20
2022-09-02T08:07:45.818Z,0.17
2022-09-02T08:10:17.195Z,0.10
2022-09-02T08:12:48.642Z,0.20
2022-09-02T08:15:21.120Z,0.30
2022-09-02T08:17:51.934Z,0.10
2022-09-02T08:20:23.283Z,0.30
2022-09-02T08:23:00.820Z,0.20
2022-09-02T08:25:44.346Z,0.20
2022-09-02T08:28:12.169Z,0.27
2022-09-02T08:30:40.190Z,0.50
2022-09-02T08:33:12.107Z,0.20
2022-09-02T08:35:42.156Z,0.10
2022-09-02T08:38:10.048Z,0.30
2022-09-02T08:40:45.362Z,0.20
2022-09-02T08:43:26.931Z,0.20
2022-09-02T08:46:03.037Z,0.10
2022-09-02T08:48:39.782Z,0.30
2022-09-02T08:51:18.362Z,0.40
2022-09-02T08:53:52.343Z,0.20
2022-09-02T08:56:24.580Z,0.37
2022-09-02T08:58:56.455Z,0.30
2022-09-02T09:01:41.110Z,0.20
2022-09-02T09:04:18.707Z,0.20
2022-09-02T09:07:04.529Z,0.30
2022-09-02T09:09:42.151Z,0.30
2022-09-02T09:12:19.161Z,0.20
2022-09-02T09:14:57.723Z,0.30
2022-09-02T09:17:34.549Z,0.20
2022-09-02T09:20:07.134Z,0.30
2022-09-02T09:22:42.280Z,0.20
2022-09-02T09:25:15.430Z,0.30
2022-09-02T09:27:49.296Z,0.30
2022-09-02T09:40:40.126Z,0.70
2022-09-02T09:43:16.820Z,0.20
2022-09-02T09:45:47.658Z,0.30
2022-09-02T09:48:23.967Z,0.30
2022-09-02T09:51:14.664Z,0.20
2022-09-02T09:53:46.709Z,0.20
2022-09-02T09:56:38.992Z,0.23
2022-09-02T09:59:10.569Z,0.20
2022-09-02T10:01:38.741Z,0.23
2022-09-02T10:04:32.335Z,0.20
2022-09-02T10:06:58.319Z,0.13
2022-09-02T10:09:36.059Z,0.20
2022-09-02T10:12:06.396Z,0.17
2022-09-02T10:14:37.653Z,0.20
2022-09-02T10:17:18.912Z,0.25
2022-09-02T10:19:56.477Z,0.10
2022-09-02T10:22:58.615Z,0.20
2022-09-02T10:25:42.145Z,0.20
2022-09-02T10:28:23.051Z,0.30
2022-09-02T10:31:02.449Z,0.20
2022-09-02T10:33:41.339Z,0.20
2022-09-02T10:36:24.666Z,0.20
2022-09-02T10:38:53.027Z,0.20
2022-09-02T10:41:36.803Z,0.10
2022-09-02T10:44:25.723Z,0.10
2022-09-02T10:47:01.378Z,0.10
2022-09-02T10:49:53.748Z,0.47
2022-09-02T10:52:38.562Z,0.20
2022-09-02T10:55:14.985Z,0.30
2022-09-02T10:57:52.082Z,0.20
2022-09-02T11:00:21.592Z,0.23
2022-09-02T11:02:55.431Z,0.20
2022-09-02T11:05:29.801Z,0.30
2022-09-02T11:08:05.061Z,0.30
2022-09-02T11:10:39.904Z,0.20
2022-09-02T11:13:15.750Z,0.20
2022-09-02T11:15:53.316Z,0.10
2022-09-02T11:18:30.437Z,0.13
2022-09-02T11:21:06.987Z,0.40
2022-09-02T11:23:42.445Z,0.20
2022-09-02T11:26:17.371Z,0.20
2022-09-02T11:28:54.726Z,0.20
2022-09-02T11:31:29.078Z,0.20
2022-09-02T11:36:33.233Z,0.20
2022-09-02T11:39:08.152Z,0.30
2022-09-02T11:41:54.470Z,0.27
2022-09-02T11:44:52.266Z,0.15
2022-09-02T11:47:41.905Z,0.20
2022-09-02T11:50:35.800Z,0.30
2022-09-02T11:53:20.824Z,0.40
2022-09-02T11:55:58.304Z,0.22
2022-09-02T11:58:34.689Z,0.10
2022-09-02T12:01:25.919Z,0.20
2022-09-02T12:04:48.632Z,0.20
2022-09-02T12:07:21.824Z,0.20
2022-09-02T12:09:56.080Z,0.20
2022-09-02T12:13:08.422Z,0.30
2022-09-02T12:15:41.232Z,0.30
2022-09-02T12:18:32.933Z,0.30
2022-09-02T12:21:07.255Z,0.20
2022-09-02T12:24:28.583Z,0.20
2022-09-02T12:27:23.423Z,0.40
2022-09-02T12:29:54.014Z,0.20
2022-09-02T12:33:05.065Z,0.10
2022-09-02T12:35:50.903Z,0.10
2022-09-02T12:38:41.210Z,0.20
2022-09-02T12:41:24.346Z,0.17
2022-09-02T12:44:02.569Z,0.20
2022-09-02T12:46:48.105Z,0.17
2022-09-02T12:49:29.989Z,0.30
2022-09-02T12:52:04.768Z,0.27
2022-09-02T12:54:42.742Z,0.20
2022-09-02T12:57:13.479Z,0.20
2022-09-02T12:59:45.455Z,0.20
2022-09-02T13:02:37.982Z,0.30
2022-09-02T13:05:22.956Z,0.20
2022-09-02T13:08:38.082Z,0.20
2022-09-02T13:11:46.930Z,0.20
2022-09-02T13:15:06.145Z,0.10
2022-09-02T13:17:48.483Z,0.20
2022-09-02T13:20:56.041Z,0.20
2022-09-02T13:24:00.333Z,0.20
2022-09-02T13:26:50.457Z,0.30
2022-09-02T13:30:08.702Z,0.22
2022-09-02T13:32:37.535Z,0.30
2022-09-02T13:35:09.285Z,0.20
2022-09-02T13:37:39.218Z,0.20
2022-09-02T13:40:20.081Z,0.20
2022-09-02T13:42:51.102Z,0.30
2022-09-02T13:45:21.972Z,0.17
2022-09-02T13:47:54.554Z,0.30
2022-09-02T13:50:24.433Z,0.20
2022-09-02T13:55:50.874Z,0.13
2022-09-02T13:58:34.084Z,0.30
2022-09-02T14:01:25.900Z,0.20
2022-09-02T14:03:56.093Z,0.40
2022-09-02T14:06:32.679Z,0.25
2022-09-02T14:09:03.714Z,0.30
2022-09-02T14:11:41.883Z,0.40
2022-09-02T14:14:14.582Z,0.20
2022-09-02T14:16:48.023Z,0.20
2022-09-02T14:19:25.919Z,0.20
2022-09-02T14:21:59.952Z,0.20
2022-09-02T14:24:30.415Z,0.30
2022-09-02T14:27:03.538Z,0.30
2022-09-02T14:29:32.458Z,0.38
2022-09-02T14:32:17.561Z,0.30
2022-09-02T14:34:47.496Z,0.40
2022-09-02T14:37:23.295Z,0.20
2022-09-02T14:40:12.000Z,0.38
2022-09-02T14:42:57.781Z,0.20
2022-09-02T14:45:31.153Z,0.20
2022-09-02T14:48:03.784Z,0.30
2022-09-02T14:50:38.136Z,0.30
2022-09-02T14:53:07.828Z,0.20
2022-09-02T14:55:52.686Z,0.20
2022-09-02T14:58:24.760Z,0.10
2022-09-02T15:00:56.974Z,0.10
2022-09-02T15:03:27.284Z,0.20
2022-09-02T16:33:57.490Z,0.30
2022-09-02T16:36:33.050Z,0.13
2022-09-02T16:39:04.790Z,0.20
2022-09-02T16:41:37.341Z,0.20
2022-09-02T16:44:10.319Z,0.20
2022-09-02T16:46:42.787Z,0.13
2022-09-02T16:49:14.830Z,0.20
2022-09-02T16:51:47.307Z,0.20
2022-09-02T16:54:21.109Z,0.30
2022-09-02T16:57:00.422Z,0.30
2022-09-02T16:59:31.525Z,0.22
2022-09-02T17:01:59.471Z,0.30
2022-09-02T17:04:29.465Z,0.40
2022-09-02T17:07:00.712Z,0.30
2022-09-02T17:09:28.568Z,0.30
2022-09-02T17:11:58.277Z,0.30
2022-09-02T17:14:28.289Z,0.30
2022-09-02T17:16:56.180Z,0.40
2022-09-02T17:19:32.262Z,0.50
2022-09-02T17:22:01.716Z,0.40
2022-09-02T17:24:32.898Z,0.40
2022-09-02T17:27:02.443Z,0.30
2022-09-02T17:29:49.557Z,0.43
2022-09-02T17:32:18.285Z,0.40
2022-09-02T17:34:50.436Z,0.50
2022-09-02T17:37:20.382Z,0.40
2022-09-02T17:39:48.999Z,0.60
2022-09-02T17:42:19.993Z,0.60
2022-09-02T17:44:50.906Z,171.68
2022-09-02T17:47:20.927Z,158.35
2022-09-02T17:49:51.543Z,54.60
2022-09-02T17:52:25.060Z,24.08
2022-09-02T17:54:55.167Z,3.40
2022-09-02T17:57:35.028Z,14.55
2022-09-02T18:00:09.945Z,14.70
2022-09-02T18:03:14.633Z,9.30
2022-09-02T18:05:55.261Z,8.00
2022-09-02T18:08:33.596Z,4.75
2022-09-02T18:11:06.788Z,4.50
2022-09-02T18:13:47.709Z,4.50
2022-09-02T18:16:33.487Z,4.78
2022-09-02T18:19:14.001Z,5.18
2022-09-02T18:22:06.548Z,4.40
2022-09-02T18:24:51.762Z,4.13
2022-09-02T18:27:33.511Z,4.35
2022-09-02T18:30:08.326Z,4.85
2022-09-02T18:33:14.206Z,5.28
2022-09-02T18:35:52.843Z,5.20
2022-09-02T18:38:31.663Z,4.70
2022-09-02T18:41:26.357Z,4.72
2022-09-02T18:44:07.660Z,4.37
2022-09-02T18:46:47.169Z,4.82
2022-09-02T18:49:17.123Z,6.33
2022-09-02T18:51:47.925Z,5.55
2022-09-02T18:54:24.994Z,4.83
2022-09-02T18:56:59.461Z,4.07
2022-09-02T18:59:36.779Z,3.87
2022-09-02T19:02:15.314Z,3.70
2022-09-02T19:04:49.075Z,4.60
2022-09-02T19:07:52.543Z,4.63
2022-09-02T19:10:28.144Z,4.70
2022-09-02T19:13:01.528Z,3.57
2022-09-02T19:15:33.459Z,4.43
2022-09-02T19:18:05.226Z,3.93
2022-09-02T19:20:41.305Z,4.50
2022-09-02T19:23:14.240Z,3.33
2022-09-02T19:25:45.447Z,3.23
2022-09-02T19:28:20.338Z,3.40
2022-09-02T19:30:49.983Z,3.20
2022-09-02T19:33:18.214Z,4.85
2022-09-02T19:35:49.486Z,4.20
2022-09-02T19:38:18.274Z,4.37
2022-09-02T19:40:52.295Z,4.60
2022-09-02T19:43:23.781Z,4.47
2022-09-02T19:45:52.370Z,3.87
2022-09-02T19:48:23.662Z,4.20
2022-09-02T19:50:52.213Z,3.83
2022-09-02T19:53:26.535Z,6.33
2022-09-02T19:55:55.530Z,7.17
2022-09-02T19:58:25.886Z,5.20
2022-09-02T20:00:55.533Z,4.47
2022-09-02T20:03:28.337Z,4.57
2022-09-02T20:05:59.160Z,3.50
2022-09-02T20:08:32.857Z,3.93
2022-09-02T20:11:06.160Z,3.67
2022-09-02T20:13:41.372Z,4.20
2022-09-02T20:16:20.368Z,4.20
2022-09-02T20:18:51.742Z,4.80
2022-09-02T20:21:24.579Z,9.20
2022-09-02T20:23:54.068Z,8.37
2022-09-02T20:26:40.171Z,14.40
2022-09-02T20:29:25.264Z,16.87
2022-09-02T20:32:03.553Z,16.77
2022-09-02T20:34:41.971Z,13.40
2022-09-02T20:37:19.926Z,10.93
2022-09-02T20:40:06.820Z,10.87
2022-09-02T20:43:04.227Z,11.00
2022-09-02T20:45:40.312Z,10.10
2022-09-02T20:48:27.541Z,8.37
2022-09-02T20:51:03.469Z,7.53
2022-09-02T20:54:02.037Z,6.97
2022-09-02T20:56:41.408Z,9.23
2022-09-02T20:59:20.139Z,4.83
2022-09-02T21:01:51.061Z,4.50
2022-09-02T21:04:35.917Z,4.83
2022-09-02T21:07:14.279Z,5.20
2022-09-02T21:09:49.388Z,5.17
2022-09-02T21:12:36.176Z,5.60
2022-09-02T21:15:10.683Z,4.53
2022-09-02T21:17:48.933Z,5.00
2022-09-02T21:20:24.131Z,5.40
2022-09-02T21:23:00.462Z,5.13
2022-09-02T21:25:34.508Z,4.43
2022-09-02T21:28:11.073Z,4.57
2022-09-02T21:30:41.948Z,4.40
2022-09-02T21:33:18.985Z,4.60
2022-09-02T21:35:49.694Z,5.07
2022-09-02T21:38:26.517Z,4.80
2022-09-02T21:41:04.702Z,4.60
2022-09-02T21:43:48.469Z,4.23
2022-09-02T21:46:26.185Z,5.20
2022-09-02T21:49:05.299Z,4.77
2022-09-02T21:51:46.797Z,14.40
2022-09-02T21:54:36.063Z,16.40
2022-09-02T21:57:22.548Z,14.30
2022-09-02T22:00:03.327Z,10.03
2022-09-02T22:02:41.325Z,8.20
2022-09-02T22:05:25.886Z,8.60
2022-09-02T22:08:03.852Z,8.50
2022-09-02T22:10:42.444Z,8.60
2022-09-02T22:13:10.842Z,7.43
2022-09-02T22:15:59.098Z,6.73
2022-09-02T22:18:37.655Z,5.90
2022-09-02T22:21:21.615Z,5.47
2022-09-02T22:23:54.877Z,5.30
2022-09-02T22:26:32.882Z,5.60
2022-09-02T22:29:06.169Z,5.67
2022-09-02T22:31:39.528Z,5.80
2022-09-02T22:34:12.598Z,5.57
2022-09-02T22:36:55.318Z,5.57
2022-09-02T22:39:35.914Z,5.10
2022-09-02T22:45:04.870Z,3.90
2022-09-02T22:47:53.843Z,4.40
2022-09-02T22:50:47.114Z,4.63
2022-09-02T22:53:17.135Z,4.00
2022-09-02T22:56:00.597Z,4.10
2022-09-02T22:58:52.601Z,4.40
2022-09-02T23:01:33.178Z,4.20
2022-09-02T23:06:40.822Z,4.10
2022-09-02T23:09:11.213Z,3.73
2022-09-02T23:11:51.369Z,3.45
2022-09-02T23:14:28.942Z,3.25
2022-09-02T23:17:21.537Z,4.07
2022-09-02T23:20:03.128Z,3.10
2022-09-02T23:22:51.387Z,2.63
2022-09-02T23:25:34.412Z,3.10
2022-09-02T23:28:17.316Z,3.10
2022-09-02T23:30:53.434Z,2.90
2022-09-02T23:33:37.324Z,3.10
2022-09-02T23:36:15.567Z,2.73
2022-09-02T23:38:58.675Z,2.67
2022-09-02T23:41:28.958Z,2.57
2022-09-02T23:43:59.236Z,2.33
2022-09-02T23:46:39.877Z,2.60
2022-09-02T23:49:20.966Z,2.33
2022-09-02T23:51:59.806Z,2.50
2022-09-02T23:54:50.490Z,2.17
2022-09-02T23:57:44.698Z,1.93
